Terminal Aerodrome Forecast
Issued by NWS

Home | Current Version | Previous Version | Graphics & Text | Print | Product List | Glossary On
Versions: 1 2 3 4 5 6 7 8 9 10 11 12 13 14 15 16 17 18 19 20 21
435
FTUS43 KMPX 271720
TAFRNH
TAF
KRNH 271720Z 2718/2818 36004KT P6SM -SHRA SCT025 OVC040
     FM272200 14006KT P6SM SCT020 OVC030
     FM280700 VRB03KT 4SM BR SCT007 OVC015
     FM281100 03002KT 4SM -SHRA BR BKN007 OVC015
     FM281500 15005KT 5SM -SHRA BR OVC020=

USA.gov is the U.S. government's official web portal to all federal, state and local government web resources and services.